createdAt,value
2023-01-11T00:03:52.963Z,70.32
2023-01-11T00:08:56.251Z,71.63
2023-01-11T00:13:57.930Z,69.91
2023-01-11T00:18:59.524Z,70.27
2023-01-11T00:24:01.156Z,71.50
2023-01-11T00:29:02.736Z,71.28
2023-01-11T00:34:04.406Z,70.11
2023-01-11T00:39:06.046Z,70.16
2023-01-11T00:44:29.113Z,69.43
2023-01-11T00:49:31.032Z,70.70
2023-01-11T00:54:32.657Z,70.29
2023-01-11T00:59:39.594Z,70.47
2023-01-11T01:04:41.518Z,69.95
2023-01-11T01:09:43.131Z,69.58
2023-01-11T01:14:47.204Z,69.19
2023-01-11T01:19:48.826Z,68.97
2023-01-11T01:24:50.507Z,68.81
2023-01-11T01:29:52.101Z,69.58
2023-01-11T01:34:53.709Z,70.28
2023-01-11T01:39:55.357Z,70.08
2023-01-11T01:45:00.373Z,70.16
2023-01-11T01:50:08.235Z,70.71
2023-01-11T01:55:13.864Z,71.41
2023-01-11T02:00:16.014Z,71.98
2023-01-11T02:05:18.712Z,71.39
2023-01-11T02:10:22.153Z,71.12
2023-01-11T02:15:24.696Z,70.31
2023-01-11T02:20:52.428Z,71.72
2023-01-11T02:26:12.530Z,71.66
2023-01-11T02:31:24.457Z,71.53
2023-01-11T02:36:53.617Z,71.29
2023-01-11T02:42:46.552Z,70.62
2023-01-11T02:48:09.860Z,71.34
2023-01-11T02:53:49.400Z,71.27
2023-01-11T02:58:53.833Z,71.27
2023-01-11T03:03:56.221Z,71.18
2023-01-11T03:09:12.692Z,70.94
2023-01-11T03:14:28.055Z,71.29
2023-01-11T03:19:44.092Z,71.78
2023-01-11T03:24:55.980Z,71.77
2023-01-11T03:30:03.654Z,71.14
2023-01-11T03:35:33.520Z,71.80
2023-01-11T03:40:40.075Z,71.46
2023-01-11T03:45:51.191Z,71.67
2023-01-11T03:50:55.389Z,71.99
2023-01-11T03:55:58.898Z,72.13
2023-01-11T04:01:01.533Z,71.90
2023-01-11T04:06:03.410Z,72.04
2023-01-11T04:11:05.360Z,72.86
2023-01-11T04:16:07.255Z,72.08
2023-01-11T04:21:08.873Z,71.73
2023-01-11T04:26:10.492Z,72.15
2023-01-11T04:31:12.431Z,72.37
2023-01-11T04:36:14.137Z,72.61
2023-01-11T04:41:34.385Z,73.17
2023-01-11T04:46:36.082Z,73.29
2023-01-11T04:51:37.709Z,72.83
2023-01-11T04:56:39.311Z,73.14
2023-01-11T05:01:40.933Z,72.64
2023-01-11T05:06:42.596Z,72.68
2023-01-11T05:11:44.764Z,71.73
2023-01-11T05:16:46.485Z,71.66
2023-01-11T05:21:48.257Z,73.05
2023-01-11T05:26:50.363Z,72.60
2023-01-11T05:31:52.042Z,72.90
2023-01-11T05:36:53.889Z,72.87
2023-01-11T05:41:55.504Z,71.89
2023-01-11T05:46:57.403Z,72.70
2023-01-11T05:51:59.077Z,71.54
2023-01-11T05:57:00.735Z,72.82
2023-01-11T06:02:02.430Z,72.74
2023-01-11T06:07:04.127Z,73.01
2023-01-11T06:12:05.947Z,73.22
2023-01-11T06:17:07.659Z,73.10
2023-01-11T06:22:09.287Z,72.83
2023-01-11T06:27:10.932Z,72.41
2023-01-11T06:32:12.641Z,72.09
2023-01-11T06:37:14.241Z,72.47
2023-01-11T06:42:15.856Z,72.01
2023-01-11T06:47:17.469Z,72.51
2023-01-11T06:52:19.213Z,72.86
2023-01-11T06:57:20.864Z,72.28
2023-01-11T07:02:22.631Z,72.20
2023-01-11T07:07:24.289Z,72.62
2023-01-11T07:12:25.977Z,72.38
2023-01-11T07:17:27.657Z,72.02
2023-01-11T07:22:29.359Z,73.51
2023-01-11T07:27:31.408Z,72.67
2023-01-11T07:32:33.085Z,73.00
2023-01-11T07:37:37.725Z,73.48
2023-01-11T07:42:58.103Z,73.82
2023-01-11T07:47:59.829Z,75.16
2023-01-11T07:53:01.478Z,74.88
2023-01-11T07:58:03.453Z,73.93
2023-01-11T08:03:05.242Z,74.22
2023-01-11T08:08:13.455Z,74.05
2023-01-11T08:13:34.015Z,75.27
2023-01-11T08:18:35.753Z,75.51
2023-01-11T08:23:37.536Z,75.58
2023-01-11T08:28:39.258Z,75.93
2023-01-11T08:33:40.925Z,75.86
2023-01-11T08:38:42.917Z,76.12
2023-01-11T08:43:44.632Z,76.07
2023-01-11T08:48:49.079Z,75.87
2023-01-11T08:53:52.421Z,76.02
2023-01-11T08:58:54.101Z,75.39
2023-01-11T09:03:55.992Z,75.31
2023-01-11T09:08:57.655Z,75.34
2023-01-11T09:13:59.368Z,75.83
2023-01-11T09:19:01.113Z,77.13
2023-01-11T09:24:03.471Z,76.57
2023-01-11T09:29:05.481Z,76.80
2023-01-11T09:34:08.342Z,76.15
2023-01-11T09:39:14.581Z,76.27
2023-01-11T09:44:21.525Z,76.11
2023-01-11T09:49:29.753Z,76.77
2023-01-11T09:54:40.441Z,76.00
2023-01-11T09:59:52.928Z,75.14
2023-01-11T10:05:22.512Z,75.24
2023-01-11T10:18:35.421Z,73.20
2023-01-11T10:22:32.748Z,73.03
2023-01-11T10:27:59.087Z,73.21
2023-01-11T10:33:25.516Z,74.21
2023-01-11T10:38:43.724Z,74.36
2023-01-11T10:43:52.693Z,73.82
2023-01-11T10:49:21.210Z,71.90
2023-01-11T10:54:31.569Z,72.43
2023-01-11T10:59:43.730Z,71.73
2023-01-11T11:04:54.000Z,72.42
2023-01-11T11:10:12.757Z,72.85
2023-01-11T11:15:25.452Z,72.80
2023-01-11T11:20:34.236Z,73.32
2023-01-11T11:25:39.086Z,72.97
2023-01-11T11:30:47.030Z,73.24
2023-01-11T11:35:56.803Z,73.87
2023-01-11T11:41:04.305Z,73.13
2023-01-11T11:46:27.284Z,72.05
2023-01-11T11:51:29.083Z,71.30
2023-01-11T11:56:37.943Z,72.67
2023-01-11T12:01:47.296Z,72.67
2023-01-11T12:07:04.682Z,72.84
2023-01-11T12:12:06.759Z,72.08
2023-01-11T12:17:37.806Z,72.90
2023-01-11T12:22:39.489Z,72.88
2023-01-11T12:27:50.131Z,72.62
2023-01-11T12:33:20.811Z,72.40
2023-01-11T12:38:39.742Z,72.55
2023-01-11T12:44:14.770Z,71.80
2023-01-11T12:49:25.283Z,72.52
2023-01-11T12:54:39.014Z,72.03
2023-01-11T13:00:12.496Z,72.42
2023-01-11T13:05:26.041Z,72.11
2023-01-11T13:11:35.308Z,72.45
2023-01-11T13:16:57.365Z,72.81
2023-01-11T13:22:04.623Z,72.84
2023-01-11T13:27:11.913Z,73.55
2023-01-11T13:32:18.447Z,73.26
2023-01-11T13:37:28.375Z,72.94
2023-01-11T13:42:36.192Z,72.74
2023-01-11T13:47:44.287Z,72.61
2023-01-11T13:53:02.560Z,72.02
2023-01-11T13:58:20.404Z,70.55
2023-01-11T14:03:33.854Z,70.37
2023-01-11T14:09:12.812Z,70.90
2023-01-11T14:14:23.363Z,70.48
2023-01-11T14:19:25.045Z,71.20
2023-01-11T14:24:28.828Z,70.29
2023-01-11T14:29:45.785Z,71.34
2023-01-11T14:35:24.511Z,71.49
2023-01-11T14:40:56.073Z,71.97
2023-01-11T14:46:16.466Z,72.15
2023-01-11T14:51:34.696Z,72.49
2023-01-11T14:56:42.278Z,72.78
2023-01-11T15:02:13.422Z,73.28
2023-01-11T15:07:23.688Z,73.58
2023-01-11T15:12:36.086Z,74.19
2023-01-11T15:17:56.329Z,74.59
2023-01-11T15:23:04.002Z,75.04
2023-01-11T15:28:41.021Z,75.01
2023-01-11T15:33:46.948Z,74.96
2023-01-11T15:38:52.301Z,75.21
2023-01-11T15:44:31.166Z,75.92
2023-01-11T15:50:06.342Z,76.15
2023-01-11T15:55:08.015Z,77.01
2023-01-11T16:00:31.337Z,77.07
2023-01-11T16:05:41.373Z,77.45
2023-01-11T16:10:51.927Z,77.15
2023-01-11T16:16:23.726Z,77.68
2023-01-11T16:21:40.183Z,78.46
2023-01-11T16:26:42.407Z,79.09
2023-01-11T16:31:56.591Z,78.83
2023-01-11T16:36:58.546Z,79.38
2023-01-11T16:42:05.905Z,79.65
2023-01-11T16:47:11.481Z,79.38
2023-01-11T16:52:28.234Z,79.02
2023-01-11T16:57:39.779Z,78.79
2023-01-11T17:02:43.333Z,79.51
2023-01-11T17:07:45.062Z,79.24
2023-01-11T17:13:06.862Z,79.35
2023-01-11T17:18:10.203Z,79.63
2023-01-11T17:23:16.092Z,79.95
2023-01-11T17:28:19.913Z,80.19
2023-01-11T17:33:32.254Z,79.48
2023-01-11T17:38:34.547Z,80.38
2023-01-11T17:43:55.976Z,79.74
2023-01-11T17:48:59.995Z,79.85
2023-01-11T17:54:01.826Z,80.79
2023-01-11T17:59:30.378Z,80.77
2023-01-11T18:04:32.524Z,80.90
2023-01-11T18:09:40.373Z,81.16
2023-01-11T18:14:50.888Z,81.69
2023-01-11T18:19:53.219Z,81.62
2023-01-11T18:24:57.104Z,81.93
2023-01-11T18:30:02.617Z,82.39
2023-01-11T18:35:05.052Z,81.94
2023-01-11T18:40:12.069Z,82.60
2023-01-11T18:45:15.163Z,82.28
2023-01-11T18:50:19.553Z,81.80
2023-01-11T18:55:21.616Z,82.28
2023-01-11T19:00:23.816Z,81.83
2023-01-11T19:05:25.763Z,82.11
2023-01-11T19:10:28.257Z,82.68
2023-01-11T19:15:30.625Z,82.38
2023-01-11T19:20:34.074Z,82.13
2023-01-11T19:25:37.478Z,82.56
2023-01-11T19:30:39.668Z,82.86
2023-01-11T19:35:42.368Z,83.27
2023-01-11T19:40:50.428Z,83.35
2023-01-11T19:46:04.372Z,83.04
2023-01-11T19:51:10.557Z,83.24
2023-01-11T19:56:12.229Z,83.41
2023-01-11T20:01:14.667Z,82.81
2023-01-11T20:06:16.601Z,82.80
2023-01-11T20:11:19.406Z,82.44
2023-01-11T20:16:23.606Z,82.30
2023-01-11T20:21:29.044Z,82.14
2023-01-11T20:26:33.880Z,81.60
2023-01-11T20:31:36.386Z,80.92
2023-01-11T20:36:38.484Z,81.40
2023-01-11T20:41:46.942Z,81.18
2023-01-11T20:46:49.244Z,82.21
2023-01-11T20:51:51.500Z,82.83
2023-01-11T20:56:53.685Z,82.17
2023-01-11T21:01:55.479Z,83.06
2023-01-11T21:06:57.154Z,82.62
2023-01-11T21:11:58.985Z,83.31
2023-01-11T21:17:00.726Z,82.84
2023-01-11T21:22:02.447Z,83.51
2023-01-11T21:27:05.055Z,83.67
2023-01-11T21:32:06.833Z,84.40
2023-01-11T21:37:08.429Z,84.13
2023-01-11T21:42:10.067Z,84.79
2023-01-11T21:47:14.672Z,84.40
2023-01-11T21:52:16.365Z,84.18
2023-01-11T21:57:18.012Z,84.38
2023-01-11T22:02:19.705Z,85.15
2023-01-11T22:07:21.335Z,84.27
2023-01-11T22:12:23.514Z,84.14
2023-01-11T22:17:25.203Z,83.66
2023-01-11T22:22:28.230Z,84.36
2023-01-11T22:27:29.908Z,84.44
2023-01-11T22:32:31.682Z,83.73
2023-01-11T22:37:33.472Z,84.30
2023-01-11T22:42:35.123Z,83.97
2023-01-11T22:47:36.730Z,84.48
2023-01-11T22:52:38.653Z,85.21
2023-01-11T22:57:40.326Z,85.13
2023-01-11T23:02:42.047Z,87.22
2023-01-11T23:07:43.868Z,89.43
2023-01-11T23:13:04.185Z,88.55
2023-01-11T23:18:06.477Z,89.07
2023-01-11T23:23:08.146Z,90.24
2023-01-11T23:28:09.820Z,90.38
2023-01-11T23:33:12.423Z,90.45
2023-01-11T23:38:14.091Z,90.49
2023-01-11T23:43:15.696Z,91.29
2023-01-11T23:48:17.336Z,91.26
2023-01-11T23:53:19.274Z,91.11
2023-01-11T23:58:21.896Z,91.62
